sensor_id;sensor_type;location;lat;lon;timestamp;temperature;humidity
12520;DHT22;6325;49.540;8.364;2023-06-04T00:02:10;16.60;95.90
12520;DHT22;6325;49.540;8.364;2023-06-04T00:04:37;16.80;96.00
12520;DHT22;6325;49.540;8.364;2023-06-04T00:07:04;16.60;96.30
12520;DHT22;6325;49.540;8.364;2023-06-04T00:09:31;16.70;96.60
12520;DHT22;6325;49.540;8.364;2023-06-04T00:11:58;16.80;96.80
12520;DHT22;6325;49.540;8.364;2023-06-04T00:14:25;16.80;96.70
12520;DHT22;6325;49.540;8.364;2023-06-04T00:16:53;16.10;96.70
12520;DHT22;6325;49.540;8.364;2023-06-04T00:19:20;16.50;96.40
12520;DHT22;6325;49.540;8.364;2023-06-04T00:21:47;16.50;96.50
12520;DHT22;6325;49.540;8.364;2023-06-04T00:24:14;16.40;96.30
12520;DHT22;6325;49.540;8.364;2023-06-04T00:26:40;16.50;96.90
12520;DHT22;6325;49.540;8.364;2023-06-04T00:29:07;16.60;96.70
12520;DHT22;6325;49.540;8.364;2023-06-04T00:31:34;16.30;97.00
12520;DHT22;6325;49.540;8.364;2023-06-04T00:34:03;15.70;96.30
12520;DHT22;6325;49.540;8.364;2023-06-04T00:36:29;16.20;97.20
12520;DHT22;6325;49.540;8.364;2023-06-04T00:38:56;16.60;97.40
12520;DHT22;6325;49.540;8.364;2023-06-04T00:41:23;16.20;97.40
12520;DHT22;6325;49.540;8.364;2023-06-04T00:43:50;15.60;97.10
12520;DHT22;6325;49.540;8.364;2023-06-04T00:46:21;16.50;97.40
12520;DHT22;6325;49.540;8.364;2023-06-04T00:48:48;15.90;96.90
12520;DHT22;6325;49.540;8.364;2023-06-04T00:51:16;16.00;97.30
12520;DHT22;6325;49.540;8.364;2023-06-04T00:53:43;16.00;97.10
12520;DHT22;6325;49.540;8.364;2023-06-04T00:56:10;16.00;97.30
12520;DHT22;6325;49.540;8.364;2023-06-04T00:58:38;16.20;97.70
12520;DHT22;6325;49.540;8.364;2023-06-04T01:01:09;15.90;97.30
12520;DHT22;6325;49.540;8.364;2023-06-04T01:03:38;16.20;98.00
12520;DHT22;6325;49.540;8.364;2023-06-04T01:06:12;15.40;97.80
12520;DHT22;6325;49.540;8.364;2023-06-04T01:08:43;16.00;98.40
12520;DHT22;6325;49.540;8.364;2023-06-04T01:11:09;15.70;98.30
12520;DHT22;6325;49.540;8.364;2023-06-04T01:13:36;15.80;98.80
12520;DHT22;6325;49.540;8.364;2023-06-04T01:16:03;15.60;98.60
12520;DHT22;6325;49.540;8.364;2023-06-04T01:18:31;16.40;99.20
12520;DHT22;6325;49.540;8.364;2023-06-04T01:21:03;15.70;98.70
12520;DHT22;6325;49.540;8.364;2023-06-04T01:23:40;16.10;98.90
12520;DHT22;6325;49.540;8.364;2023-06-04T01:26:13;15.60;99.10
12520;DHT22;6325;49.540;8.364;2023-06-04T01:28:40;15.60;98.90
12520;DHT22;6325;49.540;8.364;2023-06-04T01:31:08;15.50;99.00
12520;DHT22;6325;49.540;8.364;2023-06-04T01:33:36;15.20;98.90
12520;DHT22;6325;49.540;8.364;2023-06-04T01:36:03;15.30;98.80
12520;DHT22;6325;49.540;8.364;2023-06-04T01:38:30;15.50;99.50
12520;DHT22;6325;49.540;8.364;2023-06-04T01:40:56;15.20;99.40
12520;DHT22;6325;49.540;8.364;2023-06-04T01:43:28;15.10;99.10
12520;DHT22;6325;49.540;8.364;2023-06-04T01:45:54;15.30;99.30
12520;DHT22;6325;49.540;8.364;2023-06-04T01:48:22;15.20;99.90
12520;DHT22;6325;49.540;8.364;2023-06-04T01:50:48;14.70;99.90
12520;DHT22;6325;49.540;8.364;2023-06-04T01:53:17;15.10;99.90
12520;DHT22;6325;49.540;8.364;2023-06-04T01:55:44;15.10;99.90
12520;DHT22;6325;49.540;8.364;2023-06-04T01:58:11;14.80;99.90
12520;DHT22;6325;49.540;8.364;2023-06-04T02:00:39;15.00;99.90
12520;DHT22;6325;49.540;8.364;2023-06-04T02:03:06;15.30;99.90
12520;DHT22;6325;49.540;8.364;2023-06-04T02:05:34;14.70;99.90
12520;DHT22;6325;49.540;8.364;2023-06-04T02:08:01;14.80;99.90
12520;DHT22;6325;49.540;8.364;2023-06-04T02:10:30;14.80;99.90
12520;DHT22;6325;49.540;8.364;2023-06-04T02:12:58;14.90;99.90
12520;DHT22;6325;49.540;8.364;2023-06-04T02:15:26;14.70;99.90
12520;DHT22;6325;49.540;8.364;2023-06-04T02:17:57;14.80;99.90
12520;DHT22;6325;49.540;8.364;2023-06-04T02:20:25;14.70;99.90
12520;DHT22;6325;49.540;8.364;2023-06-04T02:22:53;14.60;99.90
12520;DHT22;6325;49.540;8.364;2023-06-04T02:25:22;14.60;99.90
12520;DHT22;6325;49.540;8.364;2023-06-04T02:27:49;14.60;99.90
12520;DHT22;6325;49.540;8.364;2023-06-04T02:30:16;14.70;99.90
12520;DHT22;6325;49.540;8.364;2023-06-04T02:32:43;14.50;99.90
12520;DHT22;6325;49.540;8.364;2023-06-04T02:35:11;14.50;99.90
12520;DHT22;6325;49.540;8.364;2023-06-04T02:37:38;14.40;99.90
12520;DHT22;6325;49.540;8.364;2023-06-04T02:40:06;14.40;99.90
12520;DHT22;6325;49.540;8.364;2023-06-04T02:42:33;14.60;99.90
12520;DHT22;6325;49.540;8.364;2023-06-04T02:45:00;14.30;99.90
12520;DHT22;6325;49.540;8.364;2023-06-04T02:47:27;14.40;99.90
12520;DHT22;6325;49.540;8.364;2023-06-04T02:49:54;14.40;99.90
12520;DHT22;6325;49.540;8.364;2023-06-04T02:52:22;14.70;99.90
12520;DHT22;6325;49.540;8.364;2023-06-04T02:54:50;14.50;99.90
12520;DHT22;6325;49.540;8.364;2023-06-04T02:57:17;14.10;99.90
12520;DHT22;6325;49.540;8.364;2023-06-04T02:59:44;14.70;99.90
12520;DHT22;6325;49.540;8.364;2023-06-04T03:02:11;14.30;99.90
12520;DHT22;6325;49.540;8.364;2023-06-04T03:04:38;14.00;99.90
12520;DHT22;6325;49.540;8.364;2023-06-04T03:07:05;14.60;99.90
12520;DHT22;6325;49.540;8.364;2023-06-04T03:09:34;14.20;99.90
12520;DHT22;6325;49.540;8.364;2023-06-04T03:12:01;14.70;99.90
12520;DHT22;6325;49.540;8.364;2023-06-04T03:14:28;14.10;99.90
12520;DHT22;6325;49.540;8.364;2023-06-04T03:16:58;14.10;99.90
12520;DHT22;6325;49.540;8.364;2023-06-04T03:19:33;14.10;99.90
12520;DHT22;6325;49.540;8.364;2023-06-04T03:22:00;14.20;99.90
12520;DHT22;6325;49.540;8.364;2023-06-04T03:24:33;14.10;99.90
12520;DHT22;6325;49.540;8.364;2023-06-04T03:27:03;13.80;99.90
12520;DHT22;6325;49.540;8.364;2023-06-04T03:29:31;14.10;99.90
12520;DHT22;6325;49.540;8.364;2023-06-04T03:31:57;14.10;99.90
12520;DHT22;6325;49.540;8.364;2023-06-04T03:34:24;14.20;99.90
12520;DHT22;6325;49.540;8.364;2023-06-04T03:36:51;13.80;99.90
12520;DHT22;6325;49.540;8.364;2023-06-04T03:39:18;14.20;99.90
12520;DHT22;6325;49.540;8.364;2023-06-04T03:41:45;14.50;99.90
12520;DHT22;6325;49.540;8.364;2023-06-04T03:44:13;14.10;99.90
12520;DHT22;6325;49.540;8.364;2023-06-04T03:46:41;14.10;99.90
12520;DHT22;6325;49.540;8.364;2023-06-04T03:49:09;14.10;99.90
12520;DHT22;6325;49.540;8.364;2023-06-04T03:51:36;14.00;99.90
12520;DHT22;6325;49.540;8.364;2023-06-04T03:54:03;14.10;99.90
12520;DHT22;6325;49.540;8.364;2023-06-04T03:56:30;14.10;99.90
12520;DHT22;6325;49.540;8.364;2023-06-04T03:58:57;13.80;99.90
12520;DHT22;6325;49.540;8.364;2023-06-04T04:01:25;14.30;99.90
12520;DHT22;6325;49.540;8.364;2023-06-04T04:03:52;14.20;99.90
12520;DHT22;6325;49.540;8.364;2023-06-04T04:06:20;14.50;99.90
12520;DHT22;6325;49.540;8.364;2023-06-04T04:08:47;13.70;99.90
12520;DHT22;6325;49.540;8.364;2023-06-04T04:11:14;14.00;99.90
12520;DHT22;6325;49.540;8.364;2023-06-04T04:13:41;14.50;99.90
12520;DHT22;6325;49.540;8.364;2023-06-04T04:16:08;14.50;99.90
12520;DHT22;6325;49.540;8.364;2023-06-04T04:18:37;14.50;99.90
12520;DHT22;6325;49.540;8.364;2023-06-04T04:21:04;14.00;99.90
12520;DHT22;6325;49.540;8.364;2023-06-04T04:23:31;14.10;99.90
12520;DHT22;6325;49.540;8.364;2023-06-04T04:25:59;14.40;99.90
12520;DHT22;6325;49.540;8.364;2023-06-04T04:28:28;14.50;99.90
12520;DHT22;6325;49.540;8.364;2023-06-04T04:30:55;14.30;99.90
12520;DHT22;6325;49.540;8.364;2023-06-04T04:33:23;14.60;99.90
12520;DHT22;6325;49.540;8.364;2023-06-04T04:35:52;14.40;99.90
12520;DHT22;6325;49.540;8.364;2023-06-04T04:38:19;14.70;99.90
12520;DHT22;6325;49.540;8.364;2023-06-04T04:40:49;14.90;99.90
12520;DHT22;6325;49.540;8.364;2023-06-04T04:43:17;14.90;99.90
12520;DHT22;6325;49.540;8.364;2023-06-04T04:45:44;15.30;99.90
12520;DHT22;6325;49.540;8.364;2023-06-04T04:48:11;15.30;99.90
12520;DHT22;6325;49.540;8.364;2023-06-04T04:50:38;15.20;99.90
12520;DHT22;6325;49.540;8.364;2023-06-04T04:53:06;15.40;99.90
12520;DHT22;6325;49.540;8.364;2023-06-04T04:55:32;14.60;99.90
12520;DHT22;6325;49.540;8.364;2023-06-04T04:57:59;14.60;99.90
12520;DHT22;6325;49.540;8.364;2023-06-04T05:00:26;15.00;99.90
12520;DHT22;6325;49.540;8.364;2023-06-04T05:02:53;15.00;99.90
12520;DHT22;6325;49.540;8.364;2023-06-04T05:05:19;15.00;99.90
12520;DHT22;6325;49.540;8.364;2023-06-04T05:07:47;14.80;99.90
12520;DHT22;6325;49.540;8.364;2023-06-04T05:10:15;15.10;99.90
12520;DHT22;6325;49.540;8.364;2023-06-04T05:12:51;14.80;99.90
12520;DHT22;6325;49.540;8.364;2023-06-04T05:15:18;14.80;99.90
12520;DHT22;6325;49.540;8.364;2023-06-04T05:17:45;15.00;99.90
12520;DHT22;6325;49.540;8.364;2023-06-04T05:20:14;14.80;99.90
12520;DHT22;6325;49.540;8.364;2023-06-04T05:22:41;14.70;99.90
12520;DHT22;6325;49.540;8.364;2023-06-04T05:25:09;14.80;99.90
12520;DHT22;6325;49.540;8.364;2023-06-04T05:27:37;15.20;99.90
12520;DHT22;6325;49.540;8.364;2023-06-04T05:30:05;14.40;99.90
12520;DHT22;6325;49.540;8.364;2023-06-04T05:32:33;15.40;99.90
12520;DHT22;6325;49.540;8.364;2023-06-04T05:35:07;14.90;99.90
12520;DHT22;6325;49.540;8.364;2023-06-04T05:37:34;14.90;99.90
12520;DHT22;6325;49.540;8.364;2023-06-04T05:40:04;15.40;99.90
12520;DHT22;6325;49.540;8.364;2023-06-04T05:42:32;14.70;99.90
12520;DHT22;6325;49.540;8.364;2023-06-04T05:45:00;14.60;99.90
12520;DHT22;6325;49.540;8.364;2023-06-04T05:47:27;14.50;99.90
12520;DHT22;6325;49.540;8.364;2023-06-04T05:49:55;14.70;99.90
12520;DHT22;6325;49.540;8.364;2023-06-04T05:52:22;15.20;99.90
12520;DHT22;6325;49.540;8.364;2023-06-04T05:54:49;15.30;99.90
12520;DHT22;6325;49.540;8.364;2023-06-04T05:57:15;15.20;99.90
12520;DHT22;6325;49.540;8.364;2023-06-04T05:59:42;15.40;99.90
12520;DHT22;6325;49.540;8.364;2023-06-04T06:02:10;15.00;99.90
12520;DHT22;6325;49.540;8.364;2023-06-04T06:04:37;14.90;99.90
12520;DHT22;6325;49.540;8.364;2023-06-04T06:07:04;15.70;99.90
12520;DHT22;6325;49.540;8.364;2023-06-04T06:09:31;15.90;99.90
12520;DHT22;6325;49.540;8.364;2023-06-04T06:11:58;15.70;99.90
12520;DHT22;6325;49.540;8.364;2023-06-04T06:14:25;15.20;99.90
12520;DHT22;6325;49.540;8.364;2023-06-04T06:16:51;15.90;99.90
12520;DHT22;6325;49.540;8.364;2023-06-04T06:19:20;15.90;99.90
12520;DHT22;6325;49.540;8.364;2023-06-04T06:21:47;16.00;99.90
12520;DHT22;6325;49.540;8.364;2023-06-04T06:24:14;16.10;99.90
12520;DHT22;6325;49.540;8.364;2023-06-04T06:26:41;16.20;99.90
12520;DHT22;6325;49.540;8.364;2023-06-04T06:29:08;16.20;99.90
12520;DHT22;6325;49.540;8.364;2023-06-04T06:31:34;16.30;99.90
12520;DHT22;6325;49.540;8.364;2023-06-04T06:34:01;16.40;99.90
12520;DHT22;6325;49.540;8.364;2023-06-04T06:36:29;16.50;99.90
12520;DHT22;6325;49.540;8.364;2023-06-04T06:38:58;16.10;99.90
12520;DHT22;6325;49.540;8.364;2023-06-04T06:41:25;17.10;99.90
12520;DHT22;6325;49.540;8.364;2023-06-04T06:43:52;16.80;99.90
12520;DHT22;6325;49.540;8.364;2023-06-04T06:46:19;16.80;99.90
12520;DHT22;6325;49.540;8.364;2023-06-04T06:48:45;17.10;99.90
12520;DHT22;6325;49.540;8.364;2023-06-04T06:51:13;17.00;99.90
12520;DHT22;6325;49.540;8.364;2023-06-04T06:53:42;17.00;99.90
12520;DHT22;6325;49.540;8.364;2023-06-04T06:56:09;17.00;99.90
12520;DHT22;6325;49.540;8.364;2023-06-04T06:58:36;17.60;99.90
12520;DHT22;6325;49.540;8.364;2023-06-04T07:01:03;17.60;99.90
12520;DHT22;6325;49.540;8.364;2023-06-04T07:03:29;17.30;99.90
12520;DHT22;6325;49.540;8.364;2023-06-04T07:05:56;17.40;99.90
12520;DHT22;6325;49.540;8.364;2023-06-04T07:08:23;17.50;99.90
12520;DHT22;6325;49.540;8.364;2023-06-04T07:10:51;17.10;99.90
12520;DHT22;6325;49.540;8.364;2023-06-04T07:13:18;17.50;99.90
12520;DHT22;6325;49.540;8.364;2023-06-04T07:15:45;17.80;99.90
12520;DHT22;6325;49.540;8.364;2023-06-04T07:18:12;17.70;99.90
12520;DHT22;6325;49.540;8.364;2023-06-04T07:20:39;18.20;99.90
12520;DHT22;6325;49.540;8.364;2023-06-04T07:23:05;18.20;99.90
12520;DHT22;6325;49.540;8.364;2023-06-04T07:25:33;18.20;99.90
12520;DHT22;6325;49.540;8.364;2023-06-04T07:28:01;18.30;99.90
12520;DHT22;6325;49.540;8.364;2023-06-04T07:30:29;18.40;99.90
12520;DHT22;6325;49.540;8.364;2023-06-04T07:32:57;18.50;99.90
12520;DHT22;6325;49.540;8.364;2023-06-04T07:35:24;18.40;99.90
12520;DHT22;6325;49.540;8.364;2023-06-04T07:37:51;18.40;99.90
12520;DHT22;6325;49.540;8.364;2023-06-04T07:40:18;18.50;99.90
12520;DHT22;6325;49.540;8.364;2023-06-04T07:42:45;18.20;99.90
12520;DHT22;6325;49.540;8.364;2023-06-04T07:45:14;18.20;99.90
12520;DHT22;6325;49.540;8.364;2023-06-04T07:47:41;18.50;99.90
12520;DHT22;6325;49.540;8.364;2023-06-04T07:50:09;18.60;99.90
12520;DHT22;6325;49.540;8.364;2023-06-04T07:52:36;18.20;99.30
12520;DHT22;6325;49.540;8.364;2023-06-04T07:55:03;18.40;99.90
12520;DHT22;6325;49.540;8.364;2023-06-04T07:57:30;18.60;99.90
12520;DHT22;6325;49.540;8.364;2023-06-04T07:59:57;19.30;99.90
12520;DHT22;6325;49.540;8.364;2023-06-04T08:02:26;19.00;99.80
12520;DHT22;6325;49.540;8.364;2023-06-04T08:04:53;19.40;99.90
12520;DHT22;6325;49.540;8.364;2023-06-04T08:07:19;19.20;99.40
12520;DHT22;6325;49.540;8.364;2023-06-04T08:09:46;19.40;98.00
12520;DHT22;6325;49.540;8.364;2023-06-04T08:12:13;20.00;98.00
12520;DHT22;6325;49.540;8.364;2023-06-04T08:14:41;19.80;97.20
12520;DHT22;6325;49.540;8.364;2023-06-04T08:17:08;20.00;97.50
12520;DHT22;6325;49.540;8.364;2023-06-04T08:19:36;20.40;96.90
12520;DHT22;6325;49.540;8.364;2023-06-04T08:22:03;20.20;97.50
12520;DHT22;6325;49.540;8.364;2023-06-04T08:24:30;20.30;97.50
12520;DHT22;6325;49.540;8.364;2023-06-04T08:26:57;20.30;95.40
12520;DHT22;6325;49.540;8.364;2023-06-04T08:29:23;20.40;95.60
12520;DHT22;6325;49.540;8.364;2023-06-04T08:31:51;20.30;96.50
12520;DHT22;6325;49.540;8.364;2023-06-04T08:34:18;20.40;95.80
12520;DHT22;6325;49.540;8.364;2023-06-04T08:36:46;21.30;94.80
12520;DHT22;6325;49.540;8.364;2023-06-04T08:39:13;20.80;94.00
12520;DHT22;6325;49.540;8.364;2023-06-04T08:41:46;21.00;94.60
12520;DHT22;6325;49.540;8.364;2023-06-04T08:44:16;21.50;95.00
12520;DHT22;6325;49.540;8.364;2023-06-04T08:46:43;21.00;93.10
12520;DHT22;6325;49.540;8.364;2023-06-04T08:49:12;21.70;93.10
12520;DHT22;6325;49.540;8.364;2023-06-04T08:51:39;21.90;92.80
12520;DHT22;6325;49.540;8.364;2023-06-04T08:54:08;21.80;92.10
12520;DHT22;6325;49.540;8.364;2023-06-04T08:56:36;22.20;92.20
12520;DHT22;6325;49.540;8.364;2023-06-04T08:59:05;21.70;92.60
12520;DHT22;6325;49.540;8.364;2023-06-04T09:01:33;21.90;91.30
12520;DHT22;6325;49.540;8.364;2023-06-04T09:04:05;22.10;91.00
12520;DHT22;6325;49.540;8.364;2023-06-04T09:06:33;22.10;90.70
12520;DHT22;6325;49.540;8.364;2023-06-04T09:09:04;22.20;91.10
12520;DHT22;6325;49.540;8.364;2023-06-04T09:11:37;22.60;90.60
12520;DHT22;6325;49.540;8.364;2023-06-04T09:14:07;22.70;90.10
12520;DHT22;6325;49.540;8.364;2023-06-04T09:16:42;22.80;88.50
12520;DHT22;6325;49.540;8.364;2023-06-04T09:19:09;23.00;87.20
12520;DHT22;6325;49.540;8.364;2023-06-04T09:21:49;23.50;89.90
12520;DHT22;6325;49.540;8.364;2023-06-04T09:24:16;23.30;88.20
12520;DHT22;6325;49.540;8.364;2023-06-04T09:26:44;23.40;85.50
12520;DHT22;6325;49.540;8.364;2023-06-04T09:29:11;23.40;86.30
12520;DHT22;6325;49.540;8.364;2023-06-04T09:31:38;23.70;84.70
12520;DHT22;6325;49.540;8.364;2023-06-04T09:34:05;23.30;85.20
12520;DHT22;6325;49.540;8.364;2023-06-04T09:36:33;22.90;87.30
12520;DHT22;6325;49.540;8.364;2023-06-04T09:39:01;23.50;86.80
12520;DHT22;6325;49.540;8.364;2023-06-04T09:41:28;23.70;80.60
12520;DHT22;6325;49.540;8.364;2023-06-04T09:44:08;23.70;84.10
12520;DHT22;6325;49.540;8.364;2023-06-04T09:46:36;24.60;84.50
12520;DHT22;6325;49.540;8.364;2023-06-04T09:49:04;23.90;82.30
12520;DHT22;6325;49.540;8.364;2023-06-04T09:51:32;24.60;79.70
12520;DHT22;6325;49.540;8.364;2023-06-04T09:54:00;24.60;79.10
12520;DHT22;6325;49.540;8.364;2023-06-04T09:56:27;24.90;77.40
12520;DHT22;6325;49.540;8.364;2023-06-04T09:58:55;25.00;79.60
12520;DHT22;6325;49.540;8.364;2023-06-04T10:01:23;25.10;79.70
12520;DHT22;6325;49.540;8.364;2023-06-04T10:03:53;25.00;76.70
12520;DHT22;6325;49.540;8.364;2023-06-04T10:06:20;24.40;77.70
12520;DHT22;6325;49.540;8.364;2023-06-04T10:08:50;25.40;77.40
12520;DHT22;6325;49.540;8.364;2023-06-04T10:11:24;24.90;76.60
12520;DHT22;6325;49.540;8.364;2023-06-04T10:13:56;24.30;76.70
12520;DHT22;6325;49.540;8.364;2023-06-04T10:16:25;24.80;76.30
12520;DHT22;6325;49.540;8.364;2023-06-04T10:18:52;25.10;75.50
12520;DHT22;6325;49.540;8.364;2023-06-04T10:21:21;25.20;77.80
12520;DHT22;6325;49.540;8.364;2023-06-04T10:23:48;24.80;75.90
12520;DHT22;6325;49.540;8.364;2023-06-04T10:26:15;25.50;76.10
12520;DHT22;6325;49.540;8.364;2023-06-04T10:28:43;25.50;75.00
12520;DHT22;6325;49.540;8.364;2023-06-04T10:31:11;25.60;75.80
12520;DHT22;6325;49.540;8.364;2023-06-04T10:33:39;25.50;76.30
12520;DHT22;6325;49.540;8.364;2023-06-04T10:36:17;25.90;74.10
12520;DHT22;6325;49.540;8.364;2023-06-04T10:38:48;25.50;70.50
12520;DHT22;6325;49.540;8.364;2023-06-04T10:41:15;26.10;68.60
12520;DHT22;6325;49.540;8.364;2023-06-04T10:43:43;26.10;68.20
12520;DHT22;6325;49.540;8.364;2023-06-04T10:46:13;26.00;71.00
12520;DHT22;6325;49.540;8.364;2023-06-04T10:48:48;26.10;70.40
12520;DHT22;6325;49.540;8.364;2023-06-04T10:51:16;26.20;70.20
12520;DHT22;6325;49.540;8.364;2023-06-04T10:53:43;26.40;70.00
12520;DHT22;6325;49.540;8.364;2023-06-04T10:56:10;26.70;67.30
12520;DHT22;6325;49.540;8.364;2023-06-04T10:58:36;27.00;62.20
12520;DHT22;6325;49.540;8.364;2023-06-04T11:01:03;26.60;61.50
12520;DHT22;6325;49.540;8.364;2023-06-04T11:03:37;26.80;62.10
12520;DHT22;6325;49.540;8.364;2023-06-04T11:06:16;26.90;60.00
12520;DHT22;6325;49.540;8.364;2023-06-04T11:08:43;27.00;62.80
12520;DHT22;6325;49.540;8.364;2023-06-04T11:11:11;26.80;63.40
12520;DHT22;6325;49.540;8.364;2023-06-04T11:13:38;27.40;62.10
12520;DHT22;6325;49.540;8.364;2023-06-04T11:16:14;27.60;62.90
12520;DHT22;6325;49.540;8.364;2023-06-04T11:18:41;27.70;63.30
12520;DHT22;6325;49.540;8.364;2023-06-04T11:21:08;28.00;60.10
12520;DHT22;6325;49.540;8.364;2023-06-04T11:23:38;28.00;60.30
12520;DHT22;6325;49.540;8.364;2023-06-04T11:26:05;28.10;58.90
12520;DHT22;6325;49.540;8.364;2023-06-04T11:28:32;28.30;57.80
12520;DHT22;6325;49.540;8.364;2023-06-04T11:30:59;27.90;57.80
12520;DHT22;6325;49.540;8.364;2023-06-04T11:33:28;27.40;54.40
12520;DHT22;6325;49.540;8.364;2023-06-04T11:35:55;28.30;58.00
12520;DHT22;6325;49.540;8.364;2023-06-04T11:38:22;27.60;56.90
12520;DHT22;6325;49.540;8.364;2023-06-04T11:40:57;28.10;55.30
12520;DHT22;6325;49.540;8.364;2023-06-04T11:43:24;28.00;57.40
12520;DHT22;6325;49.540;8.364;2023-06-04T11:45:50;27.80;54.60
12520;DHT22;6325;49.540;8.364;2023-06-04T11:48:18;27.50;58.50
12520;DHT22;6325;49.540;8.364;2023-06-04T11:50:46;28.00;56.30
12520;DHT22;6325;49.540;8.364;2023-06-04T11:53:13;27.60;58.50
12520;DHT22;6325;49.540;8.364;2023-06-04T11:55:40;28.00;56.80
12520;DHT22;6325;49.540;8.364;2023-06-04T11:58:08;28.10;55.10
12520;DHT22;6325;49.540;8.364;2023-06-04T12:00:36;28.10;57.10
12520;DHT22;6325;49.540;8.364;2023-06-04T12:03:03;28.50;58.00
12520;DHT22;6325;49.540;8.364;2023-06-04T12:05:30;28.30;56.00
12520;DHT22;6325;49.540;8.364;2023-06-04T12:08:04;28.70;56.00
12520;DHT22;6325;49.540;8.364;2023-06-04T12:10:36;28.40;54.70
12520;DHT22;6325;49.540;8.364;2023-06-04T12:13:03;28.40;55.90
12520;DHT22;6325;49.540;8.364;2023-06-04T12:15:31;28.20;56.20
12520;DHT22;6325;49.540;8.364;2023-06-04T12:17:58;28.70;52.50
12520;DHT22;6325;49.540;8.364;2023-06-04T12:20:35;28.40;54.50
12520;DHT22;6325;49.540;8.364;2023-06-04T12:23:02;28.30;54.50
12520;DHT22;6325;49.540;8.364;2023-06-04T12:25:30;28.30;53.70
12520;DHT22;6325;49.540;8.364;2023-06-04T12:27:57;28.20;55.50
12520;DHT22;6325;49.540;8.364;2023-06-04T12:30:36;27.80;54.20
12520;DHT22;6325;49.540;8.364;2023-06-04T12:33:03;28.40;55.50
12520;DHT22;6325;49.540;8.364;2023-06-04T12:35:29;28.40;55.10
12520;DHT22;6325;49.540;8.364;2023-06-04T12:37:56;28.30;55.50
12520;DHT22;6325;49.540;8.364;2023-06-04T12:40:23;28.50;55.60
12520;DHT22;6325;49.540;8.364;2023-06-04T12:42:50;28.80;54.90
12520;DHT22;6325;49.540;8.364;2023-06-04T12:45:17;28.60;52.60
12520;DHT22;6325;49.540;8.364;2023-06-04T12:47:45;28.70;54.50
12520;DHT22;6325;49.540;8.364;2023-06-04T12:50:13;28.80;55.20
12520;DHT22;6325;49.540;8.364;2023-06-04T12:52:40;29.00;50.60
12520;DHT22;6325;49.540;8.364;2023-06-04T12:55:07;28.80;53.00
12520;DHT22;6325;49.540;8.364;2023-06-04T12:57:34;29.30;53.80
12520;DHT22;6325;49.540;8.364;2023-06-04T13:00:02;29.20;52.30
12520;DHT22;6325;49.540;8.364;2023-06-04T13:02:30;29.10;51.90
12520;DHT22;6325;49.540;8.364;2023-06-04T13:04:58;29.30;54.60
12520;DHT22;6325;49.540;8.364;2023-06-04T13:07:25;29.60;51.50
12520;DHT22;6325;49.540;8.364;2023-06-04T13:09:51;29.70;53.00
12520;DHT22;6325;49.540;8.364;2023-06-04T13:12:18;29.90;52.60
12520;DHT22;6325;49.540;8.364;2023-06-04T13:14:45;29.50;51.40
12520;DHT22;6325;49.540;8.364;2023-06-04T13:17:12;29.70;49.90
12520;DHT22;6325;49.540;8.364;2023-06-04T13:19:39;29.80;52.00
12520;DHT22;6325;49.540;8.364;2023-06-04T13:22:07;29.80;49.70
12520;DHT22;6325;49.540;8.364;2023-06-04T13:24:34;29.60;50.60
12520;DHT22;6325;49.540;8.364;2023-06-04T13:27:02;30.40;49.80
12520;DHT22;6325;49.540;8.364;2023-06-04T13:29:29;30.40;49.40
12520;DHT22;6325;49.540;8.364;2023-06-04T13:31:59;29.70;50.70
12520;DHT22;6325;49.540;8.364;2023-06-04T13:34:25;29.90;48.50
12520;DHT22;6325;49.540;8.364;2023-06-04T13:36:52;29.90;48.20
12520;DHT22;6325;49.540;8.364;2023-06-04T13:39:21;30.00;50.40
12520;DHT22;6325;49.540;8.364;2023-06-04T13:41:48;30.10;48.50
12520;DHT22;6325;49.540;8.364;2023-06-04T13:44:15;30.30;46.80
12520;DHT22;6325;49.540;8.364;2023-06-04T13:46:42;30.20;48.30
12520;DHT22;6325;49.540;8.364;2023-06-04T13:49:08;30.60;47.80
12520;DHT22;6325;49.540;8.364;2023-06-04T13:51:35;30.60;47.90
12520;DHT22;6325;49.540;8.364;2023-06-04T13:54:02;30.70;45.50
12520;DHT22;6325;49.540;8.364;2023-06-04T13:56:30;30.70;47.10
12520;DHT22;6325;49.540;8.364;2023-06-04T13:58:57;30.60;46.60
12520;DHT22;6325;49.540;8.364;2023-06-04T14:01:24;30.50;45.30
12520;DHT22;6325;49.540;8.364;2023-06-04T14:03:51;30.70;46.80
12520;DHT22;6325;49.540;8.364;2023-06-04T14:06:17;30.60;47.70
12520;DHT22;6325;49.540;8.364;2023-06-04T14:08:44;30.80;46.90
12520;DHT22;6325;49.540;8.364;2023-06-04T14:11:11;30.90;44.40
12520;DHT22;6325;49.540;8.364;2023-06-04T14:13:39;31.20;48.50
12520;DHT22;6325;49.540;8.364;2023-06-04T14:16:07;31.20;45.70
12520;DHT22;6325;49.540;8.364;2023-06-04T14:18:33;31.10;47.00
12520;DHT22;6325;49.540;8.364;2023-06-04T14:21:00;31.60;44.50
12520;DHT22;6325;49.540;8.364;2023-06-04T14:23:27;31.60;47.30
12520;DHT22;6325;49.540;8.364;2023-06-04T14:25:54;31.10;46.20
12520;DHT22;6325;49.540;8.364;2023-06-04T14:28:20;31.40;42.70
12520;DHT22;6325;49.540;8.364;2023-06-04T14:30:49;31.50;44.50
12520;DHT22;6325;49.540;8.364;2023-06-04T14:33:16;30.80;43.70
12520;DHT22;6325;49.540;8.364;2023-06-04T14:35:43;31.50;44.60
12520;DHT22;6325;49.540;8.364;2023-06-04T14:38:12;31.20;46.40
12520;DHT22;6325;49.540;8.364;2023-06-04T14:40:39;31.40;45.50
12520;DHT22;6325;49.540;8.364;2023-06-04T14:43:07;31.50;42.10
12520;DHT22;6325;49.540;8.364;2023-06-04T14:45:33;31.70;42.80
12520;DHT22;6325;49.540;8.364;2023-06-04T14:48:01;31.40;42.30
12520;DHT22;6325;49.540;8.364;2023-06-04T14:50:28;31.30;42.30
12520;DHT22;6325;49.540;8.364;2023-06-04T14:52:55;31.10;43.20
12520;DHT22;6325;49.540;8.364;2023-06-04T14:55:22;31.30;40.40
12520;DHT22;6325;49.540;8.364;2023-06-04T14:57:49;31.50;39.70
12520;DHT22;6325;49.540;8.364;2023-06-04T15:00:16;30.70;44.20
12520;DHT22;6325;49.540;8.364;2023-06-04T15:02:43;31.20;44.90
12520;DHT22;6325;49.540;8.364;2023-06-04T15:05:11;31.50;41.40
12520;DHT22;6325;49.540;8.364;2023-06-04T15:07:38;31.30;42.40
12520;DHT22;6325;49.540;8.364;2023-06-04T15:10:06;31.80;44.10
12520;DHT22;6325;49.540;8.364;2023-06-04T15:12:34;31.20;38.00
12520;DHT22;6325;49.540;8.364;2023-06-04T15:15:01;30.60;38.50
12520;DHT22;6325;49.540;8.364;2023-06-04T15:17:28;31.20;40.50
12520;DHT22;6325;49.540;8.364;2023-06-04T15:19:56;31.10;43.70
12520;DHT22;6325;49.540;8.364;2023-06-04T15:22:25;31.10;41.50
12520;DHT22;6325;49.540;8.364;2023-06-04T15:24:52;31.10;42.10
12520;DHT22;6325;49.540;8.364;2023-06-04T15:27:21;31.10;40.90
12520;DHT22;6325;49.540;8.364;2023-06-04T15:29:48;31.20;42.60
12520;DHT22;6325;49.540;8.364;2023-06-04T15:32:15;30.70;39.60
12520;DHT22;6325;49.540;8.364;2023-06-04T15:34:42;30.50;39.10
12520;DHT22;6325;49.540;8.364;2023-06-04T15:37:08;30.90;40.90
12520;DHT22;6325;49.540;8.364;2023-06-04T15:39:36;30.50;39.00
12520;DHT22;6325;49.540;8.364;2023-06-04T15:42:04;30.00;38.90
12520;DHT22;6325;49.540;8.364;2023-06-04T15:44:31;30.10;39.30
12520;DHT22;6325;49.540;8.364;2023-06-04T15:46:57;30.00;41.80
12520;DHT22;6325;49.540;8.364;2023-06-04T15:49:24;30.20;40.90